Íslenskir flugvellir

Veldu flugvelli í þeirri röð sem þeir eiga að birtast og styddu á hnappinn

Uppfært síðast 01.12.2020 - kl. 11:36

SIGMET síðustu 6 klst.

BIRD SIGMET B03 VALID 010800/011000 BIRK- BIRD REYKJAVIK CTA SEV TURB FCST WI N6530 W01510 - N6530 W01830 - N6420 W01910 - N6430 W01420 - N6530 W01510 SFC/FL130 STNR WKN

Keflavík

METAR síðustu 3 klst

TímiSkeyti
2020-12-01 11.30METAR BIKF 011130Z 21036G48KT 9999 SHRA SCT014 BKN018TCU 04/02 Q0975
2020-12-01 11.00METAR BIKF 011100Z 20032G42KT 9999 -RA SCT017 BKN025 05/03 Q0976
2020-12-01 10.30METAR BIKF 011030Z 20038G49KT 9999 -RA BKN018 OVC071 05/03 Q0976
2020-12-01 10.00METAR BIKF 011000Z 18028G41KT 9999 -RA SCT011 BKN036 OVC051 05/03 Q0978
2020-12-01 09.30METAR BIKF 010930Z 17028G40KT 9999 -RA SCT009 BKN015 BKN025 05/03 Q0979
2020-12-01 09.00METAR BIKF 010900Z 19024G39KT 9999 RA SCT009 BKN015 BKN025 04/02 Q0980

TAF

TAFBIKF2020-12-01 10.59Z01121219033G46KT 9999 -SHRA SCT015CB BKN023 TX05/0112Z TN00/0206Z TEMPO 0112/0116 6000 SHRA BKN010CB BECMG 0114/0116 25035G47KT TEMPO 0116/0201 3000 SHRASN BKN010CB PROB40 TEMPO 0117/0121 24044G58KT BECMG 0123/0201 30020G30KT -SHSN TEMPO 0201/0208 2000 SHSN BKN009CB BECMG 0205/0207 01025G35KT SCT020 BKN025 BECMG 0210/0212 36035G47KT

Allur vindur er réttvísandi bæði í Metar og frá sjálfvirkum veðurstöðvum




Aðrir tengdir vefir



Þetta vefsvæði byggir á Eplica